Time;durP1;ratioP1;P1;durP2;ratioP2;P2;SDS_P1;SDS_P2;PMS_P1;PMS_P2;Temp;Humidity;BMP_temperature;BMP_pressure;BME280_temperature;BME280_humidity;BME280_pressure;Samples;Min_cycle;Max_cycle;Signal;HPM_P1;HPM_P2
2021/10/01 00:01:42;;;;;;;3.42;3.33;;;15.10;58.10;;;;;;5029676;28;20385;-90
2021/10/01 00:04:09;;;;;;;3.30;3.20;;;15.10;58.20;;;;;;5015580;28;20042;-89
2021/10/01 00:06:35;;;;;;;3.25;3.15;;;15.10;58.20;;;;;;5032298;28;20037;-89
2021/10/01 00:09:01;;;;;;;3.30;3.20;;;15.00;58.20;;;;;;5033033;28;20056;-89
2021/10/01 00:11:27;;;;;;;3.65;3.45;;;15.00;58.30;;;;;;5031411;28;20480;-89
2021/10/01 00:13:53;;;;;;;3.22;3.13;;;15.00;58.30;;;;;;5031530;28;20040;-89
2021/10/01 00:16:19;;;;;;;4.80;4.47;;;15.00;58.50;;;;;;5031049;28;20029;-89
2021/10/01 00:18:45;;;;;;;3.35;3.25;;;14.90;58.40;;;;;;5032582;28;20044;-89
2021/10/01 00:21:11;;;;;;;3.33;3.22;;;14.90;58.50;;;;;;5032157;28;20472;-88
2021/10/01 00:23:38;;;;;;;3.60;3.40;;;14.90;58.50;;;;;;5031317;28;20050;-89
2021/10/01 00:26:04;;;;;;;3.20;3.10;;;14.90;58.60;;;;;;5032147;28;20041;-89
2021/10/01 00:28:30;;;;;;;3.35;3.25;;;14.90;58.70;;;;;;5032125;28;20029;-89
2021/10/01 00:30:56;;;;;;;3.60;3.40;;;14.80;58.70;;;;;;5031745;28;20037;-89
2021/10/01 00:33:22;;;;;;;3.33;3.22;;;14.80;58.80;;;;;;5032825;28;20479;-89
2021/10/01 00:35:48;;;;;;;3.55;3.40;;;14.80;58.80;;;;;;5033080;28;20064;-89
2021/10/01 00:38:14;;;;;;;3.30;3.20;;;14.80;58.80;;;;;;5014325;28;20060;-89
2021/10/01 00:40:41;;;;;;;3.30;3.20;;;14.70;58.80;;;;;;5029786;28;20036;-88
2021/10/01 00:43:07;;;;;;;3.70;3.50;;;14.70;58.90;;;;;;5014995;28;20072;-89
2021/10/01 00:45:33;;;;;;;3.17;3.08;;;14.70;58.90;;;;;;5031025;28;20052;-89
2021/10/01 00:47:59;;;;;;;3.30;3.20;;;14.70;58.90;;;;;;5032863;28;20049;-89
2021/10/01 00:50:25;;;;;;;3.40;3.25;;;14.70;59.00;;;;;;5030265;28;20056;-89
2021/10/01 00:52:51;;;;;;;3.20;3.10;;;14.70;59.00;;;;;;5031783;28;20044;-89
2021/10/01 00:55:18;;;;;;;3.30;3.20;;;14.70;59.10;;;;;;5013747;28;20046;-89
2021/10/01 00:57:44;;;;;;;3.15;3.05;;;14.70;59.10;;;;;;5030312;28;20037;-89
2021/10/01 01:00:26;;;;;;;3.50;3.30;;;14.70;59.10;;;;;;5031967;28;20049;-89
2021/10/01 01:02:53;;;;;;;3.40;3.20;;;14.70;59.10;;;;;;5017353;28;20041;-89
2021/10/01 01:05:20;;;;;;;3.25;3.15;;;14.70;59.10;;;;;;5013931;28;20056;-87
2021/10/01 01:07:54;;;;;;;3.28;3.17;;;14.70;59.20;;;;;;5013816;28;20411;-89
2021/10/01 01:10:41;;;;;;;3.20;3.10;;;14.70;59.20;;;;;;5020249;28;20415;-89
2021/10/01 01:13:15;;;;;;;3.30;3.20;;;14.70;59.20;;;;;;5031311;28;20037;-89
2021/10/01 01:15:48;;;;;;;3.30;3.20;;;14.70;59.20;;;;;;5022530;28;20045;-90
2021/10/01 01:18:18;;;;;;;3.30;3.20;;;14.70;59.20;;;;;;5027550;28;20033;-90
2021/10/01 01:20:52;;;;;;;3.33;3.23;;;14.70;59.20;;;;;;5029837;28;20026;-90
2021/10/01 01:23:53;;;;;;;3.25;3.15;;;14.60;59.20;;;;;;5028283;28;20029;-89
2021/10/01 01:26:50;;;;;;;3.30;3.20;;;14.70;59.40;;;;;;5031587;28;20040;-90
2021/10/01 01:29:19;;;;;;;6.55;3.22;;;14.60;59.90;;;;;;5030340;28;20435;-89
2021/10/01 01:31:50;;;;;;;3.20;3.10;;;14.60;59.30;;;;;;5030804;28;20100;-89
2021/10/01 01:34:21;;;;;;;;;;;14.60;59.40;;;;;;5014653;28;20034;-89
2021/10/01 01:36:49;;;;;;;3.33;3.22;;;14.50;59.40;;;;;;5029401;28;19908;-89
2021/10/01 01:39:15;;;;;;;3.10;3.00;;;14.50;59.40;;;;;;5030179;28;20038;-89
2021/10/01 01:41:41;;;;;;;3.05;2.95;;;14.50;59.40;;;;;;5013350;28;20041;-89
2021/10/01 01:44:09;;;;;;;3.30;3.20;;;14.50;59.50;;;;;;5013490;28;20040;-89
2021/10/01 01:46:35;;;;;;;4.20;4.00;;;14.50;59.50;;;;;;5013215;28;20037;-88
2021/10/01 01:49:01;;;;;;;3.05;2.95;;;14.50;59.60;;;;;;5029874;28;20021;-90
2021/10/01 01:51:27;;;;;;;3.05;2.95;;;14.50;59.60;;;;;;5029891;28;20036;-88
2021/10/01 01:53:54;;;;;;;3.17;3.08;;;14.50;59.60;;;;;;5030216;28;20036;-88
2021/10/01 01:56:20;;;;;;;3.15;3.05;;;14.50;59.60;;;;;;5013161;28;20026;-89
2021/10/01 01:58:46;;;;;;;3.25;3.15;;;14.50;59.60;;;;;;5029368;28;20403;-90
2021/10/01 02:01:12;;;;;;;3.20;3.10;;;14.60;59.70;;;;;;5027834;28;20026;-89
2021/10/01 02:03:38;;;;;;;3.13;3.03;;;14.60;59.70;;;;;;5024218;28;20399;-89
2021/10/01 02:06:04;;;;;;;3.10;3.00;;;14.60;59.70;;;;;;5003378;28;20520;-89
2021/10/01 02:08:30;;;;;;;3.10;3.00;;;14.60;59.70;;;;;;5021370;28;20041;-89
2021/10/01 02:10:56;;;;;;;5.35;3.30;;;14.60;59.80;;;;;;5038202;28;20488;-90
2021/10/01 02:13:22;;;;;;;3.00;2.90;;;14.60;59.80;;;;;;5029358;28;20092;-89
2021/10/01 02:15:52;;;;;;;3.10;3.00;;;14.60;59.80;;;;;;5031440;28;20078;-89
2021/10/01 02:18:20;;;;;;;3.33;3.22;;;14.60;59.80;;;;;;5016534;28;20049;-89
2021/10/01 02:20:46;;;;;;;3.17;3.08;;;14.60;59.80;;;;;;5031409;28;20395;-90
2021/10/01 02:23:12;;;;;;;3.08;2.97;;;14.60;59.90;;;;;;5014716;28;20029;-89
2021/10/01 02:28:51;;;;;;;3.20;3.10;;;14.60;60.00;;;;;;5034558;28;20044;-89
2021/10/01 02:31:23;;;;;;;3.10;3.00;;;14.60;60.00;;;;;;5033275;28;20017;-89
2021/10/01 02:33:49;;;;;;;3.80;3.45;;;14.60;60.00;;;;;;5029744;28;20048;-89
2021/10/01 02:36:15;;;;;;;3.30;3.20;;;14.60;60.00;;;;;;5031904;28;20032;-89
2021/10/01 02:38:41;;;;;;;3.15;3.05;;;14.60;60.20;;;;;;5033961;28;20050;-89
2021/10/01 02:41:08;;;;;;;3.00;2.90;;;14.60;60.20;;;;;;5034829;28;20037;-87
2021/10/01 02:43:34;;;;;;;3.45;3.30;;;14.60;60.30;;;;;;5034770;28;20036;-89
2021/10/01 02:46:00;;;;;;;3.95;3.15;;;14.50;60.30;;;;;;5016070;28;20029;-88
2021/10/01 02:48:26;;;;;;;3.30;3.20;;;14.50;60.40;;;;;;5034065;28;20038;-89
2021/10/01 02:50:56;;;;;;;3.38;3.28;;;14.50;60.50;;;;;;5033732;28;20041;-88
2021/10/01 02:53:45;;;;;;;3.17;3.08;;;14.50;60.60;;;;;;5032465;28;20041;-89
2021/10/01 02:56:17;;;;;;;10.68;3.47;;;14.40;60.60;;;;;;5016319;28;20408;-89
2021/10/01 02:59:04;;;;;;;3.30;3.17;;;14.40;60.70;;;;;;5032220;28;20064;-88
2021/10/01 03:01:30;;;;;;;3.20;3.10;;;14.40;60.80;;;;;;5033056;28;20033;-88
2021/10/01 03:04:03;;;;;;;3.13;3.03;;;14.40;60.70;;;;;;5032973;28;20107;-89
2021/10/01 03:06:29;;;;;;;;;;;14.40;60.80;;;;;;5033926;28;20021;-89
2021/10/01 03:08:55;;;;;;;3.22;3.13;;;14.50;60.80;;;;;;5052452;28;19909;-90
2021/10/01 03:11:24;;;;;;;3.10;3.00;;;14.40;60.60;;;;;;5060800;28;20037;-88
2021/10/01 03:13:50;;;;;;;3.50;3.30;;;14.40;60.60;;;;;;5039299;28;20049;-89
2021/10/01 03:16:19;;;;;;;3.08;2.97;;;14.40;60.70;;;;;;5015608;28;20033;-89
2021/10/01 03:18:46;;;;;;;3.10;3.00;;;14.50;60.80;;;;;;5060996;28;20048;-89
2021/10/01 03:21:12;;;;;;;3.10;3.00;;;14.50;60.80;;;;;;5017022;28;20392;-89
2021/10/01 03:23:38;;;;;;;3.20;3.10;;;14.50;60.80;;;;;;5016277;28;20033;-89
2021/10/01 03:26:04;;;;;;;3.03;2.92;;;14.50;60.90;;;;;;4998846;28;20041;-89
2021/10/01 03:28:30;;;;;;;2.90;2.80;;;14.50;61.70;;;;;;5033222;28;20021;-89
2021/10/01 03:30:56;;;;;;;2.90;2.80;;;14.50;60.90;;;;;;5031136;28;20036;-89
2021/10/01 03:33:24;;;;;;;3.05;2.95;;;14.50;60.90;;;;;;5032453;28;20029;-89
2021/10/01 03:35:51;;;;;;;3.63;3.42;;;14.50;61.00;;;;;;5033916;28;20042;-89
2021/10/01 03:38:17;;;;;;;3.13;2.92;;;14.60;61.00;;;;;;5032531;28;20037;-89
2021/10/01 03:40:43;;;;;;;3.30;3.20;;;14.60;61.00;;;;;;5015885;28;20026;-88
2021/10/01 03:43:10;;;;;;;3.20;3.10;;;14.60;61.10;;;;;;5031632;28;20053;-89
2021/10/01 03:45:36;;;;;;;3.00;2.90;;;14.70;61.10;;;;;;5032755;28;20040;-89
2021/10/01 03:48:03;;;;;;;2.97;2.88;;;14.60;61.10;;;;;;5032980;28;20025;-89
2021/10/01 03:50:33;;;;;;;3.10;3.00;;;14.70;61.10;;;;;;5033204;28;20041;-89
2021/10/01 03:53:00;;;;;;;3.00;2.90;;;14.70;61.10;;;;;;5031281;28;20045;-89
2021/10/01 03:55:26;;;;;;;2.92;2.83;;;14.70;61.00;;;;;;5032608;28;20025;-88
2021/10/01 03:57:52;;;;;;;3.00;2.90;;;14.80;61.10;;;;;;5033233;28;20022;-88
2021/10/01 04:00:19;;;;;;;3.28;3.17;;;14.80;61.10;;;;;;5032256;28;20049;-88
2021/10/01 04:02:45;;;;;;;3.40;3.20;;;14.80;61.20;;;;;;5019980;28;20416;-88
2021/10/01 04:05:12;;;;;;;3.20;3.10;;;14.80;61.10;;;;;;5045060;28;20479;-88
2021/10/01 04:07:38;;;;;;;3.20;3.10;;;14.80;61.10;;;;;;5033394;28;20391;-88
2021/10/01 04:10:05;;;;;;;3.20;3.10;;;14.90;61.20;;;;;;5032969;28;20480;-89
2021/10/01 04:12:31;;;;;;;3.10;3.00;;;14.90;61.30;;;;;;5032997;28;20388;-88
2021/10/01 04:14:57;;;;;;;3.10;3.00;;;14.90;61.30;;;;;;5033615;28;20025;-88
2021/10/01 04:17:23;;;;;;;3.10;3.00;;;14.90;61.30;;;;;;5023293;28;20496;-88
2021/10/01 04:19:50;;;;;;;3.20;3.10;;;14.90;61.40;;;;;;5026099;28;20056;-88
2021/10/01 04:22:17;;;;;;;3.83;3.30;;;14.90;61.40;;;;;;5031569;28;20032;-88
2021/10/01 04:24:43;;;;;;;3.00;2.90;;;14.90;61.50;;;;;;5032990;28;20030;-88
2021/10/01 04:27:09;;;;;;;3.10;3.00;;;14.90;61.50;;;;;;5032460;28;20048;-88
2021/10/01 04:29:35;;;;;;;3.63;3.40;;;14.90;61.60;;;;;;5032419;28;20029;-88
2021/10/01 04:32:04;;;;;;;3.20;3.10;;;14.90;61.60;;;;;;5029755;28;20041;-88
2021/10/01 04:34:33;;;;;;;3.10;3.00;;;14.90;61.60;;;;;;5031367;28;20037;-88
2021/10/01 04:37:00;;;;;;;3.33;3.22;;;14.90;61.70;;;;;;5032511;28;20502;-88
2021/10/01 04:39:26;;;;;;;3.30;3.20;;;14.90;61.70;;;;;;5031643;28;20036;-88
2021/10/01 04:41:52;;;;;;;3.10;3.00;;;14.80;61.70;;;;;;5031904;28;20021;-88
2021/10/01 04:44:18;;;;;;;3.10;3.00;;;14.80;61.80;;;;;;5032198;28;20041;-88
2021/10/01 04:46:45;;;;;;;3.20;3.10;;;14.90;61.80;;;;;;5030233;28;20503;-88
2021/10/01 04:49:12;;;;;;;3.20;3.10;;;14.90;61.90;;;;;;5030853;28;20040;-88
2021/10/01 04:51:38;;;;;;;3.10;3.00;;;14.80;61.80;;;;;;5032091;28;20419;-88
2021/10/01 04:54:04;;;;;;;3.20;3.10;;;14.80;61.90;;;;;;5031383;28;20056;-88
2021/10/01 04:56:30;;;;;;;3.60;3.40;;;14.80;62.00;;;;;;5032527;28;20480;-89
2021/10/01 04:58:56;;;;;;;3.33;3.22;;;14.80;62.10;;;;;;5029925;28;20049;-88
2021/10/01 05:01:23;;;;;;;3.00;2.90;;;14.80;62.10;;;;;;5030486;28;20044;-88
2021/10/01 05:03:49;;;;;;;3.08;2.97;;;14.80;62.10;;;;;;5031160;28;20029;-88
2021/10/01 05:06:15;;;;;;;3.00;2.90;;;14.80;62.20;;;;;;5031241;28;20384;-88
2021/10/01 05:08:41;;;;;;;3.00;2.90;;;14.80;62.20;;;;;;5030825;28;20029;-87
2021/10/01 05:11:07;;;;;;;3.20;3.10;;;14.80;62.30;;;;;;5031408;28;20042;-88
2021/10/01 05:13:33;;;;;;;3.00;2.90;;;14.80;62.30;;;;;;5031531;28;20030;-88
2021/10/01 05:16:02;;;;;;;3.20;3.10;;;14.80;62.30;;;;;;5031892;28;20033;-88
2021/10/01 05:18:28;;;;;;;3.03;2.92;;;14.80;62.40;;;;;;5030140;28;20053;-88
2021/10/01 05:20:54;;;;;;;3.10;3.00;;;14.80;63.20;;;;;;5032290;28;20045;-88
2021/10/01 05:23:20;;;;;;;10.80;3.58;;;14.80;62.50;;;;;;5031148;28;20407;-88
2021/10/01 05:25:46;;;;;;;3.00;2.90;;;14.70;62.40;;;;;;5032000;28;20041;-88
2021/10/01 05:28:13;;;;;;;3.67;3.42;;;14.70;62.50;;;;;;5030594;28;20034;-88
2021/10/01 05:30:40;;;;;;;2.80;2.70;;;14.70;62.60;;;;;;5030037;28;20045;-87
2021/10/01 05:33:06;;;;;;;3.10;3.00;;;14.70;62.60;;;;;;5029645;28;20037;-88
2021/10/01 05:35:36;;;;;;;3.28;3.13;;;14.70;62.70;;;;;;5029579;28;20045;-88
2021/10/01 05:38:03;;;;;;;3.10;3.00;;;14.70;62.60;;;;;;5031434;28;20033;-88
2021/10/01 05:40:29;;;;;;;3.03;2.92;;;14.70;62.70;;;;;;5029460;28;20057;-88
2021/10/01 05:42:55;;;;;;;3.15;3.05;;;14.70;62.80;;;;;;5030322;28;20025;-88
2021/10/01 05:45:21;;;;;;;3.03;2.92;;;14.70;62.80;;;;;;5030957;28;20498;-88
2021/10/01 05:47:47;;;;;;;3.05;2.95;;;14.60;62.80;;;;;;5031937;28;20048;-88
2021/10/01 05:50:15;;;;;;;3.00;2.90;;;14.60;62.90;;;;;;5031374;28;20034;-88
2021/10/01 05:55:10;;;;;;;6.68;3.35;;;14.60;63.00;;;;;;5030376;28;20040;-85
2021/10/01 05:57:36;;;;;;;2.97;2.88;;;14.60;63.10;;;;;;5027927;28;20463;-89
2021/10/01 06:00:06;;;;;;;3.13;2.97;;;14.60;63.10;;;;;;5029662;28;20056;-83
2021/10/01 06:02:32;;;;;;;3.25;3.05;;;14.60;63.20;;;;;;5031008;28;20037;-83
2021/10/01 06:04:58;;;;;;;2.90;2.80;;;14.60;63.20;;;;;;5046890;28;20037;-83
2021/10/01 06:07:24;;;;;;;2.92;2.83;;;14.60;63.20;;;;;;5025827;28;20038;-82
2021/10/01 06:09:50;;;;;;;2.90;2.80;;;14.60;63.30;;;;;;5029351;28;20030;-83
2021/10/01 06:12:16;;;;;;;2.90;2.80;;;14.60;63.30;;;;;;5030684;28;20037;-83
2021/10/01 06:14:42;;;;;;;2.90;2.80;;;14.60;63.30;;;;;;5029272;28;20392;-81
2021/10/01 06:17:09;;;;;;;3.03;2.90;;;14.60;63.30;;;;;;5012732;28;20038;-81
2021/10/01 06:19:36;;;;;;;2.90;2.80;;;14.60;63.30;;;;;;5039160;28;20056;-85
2021/10/01 06:22:04;;;;;;;3.20;3.10;;;14.60;63.30;;;;;;5062697;28;20040;-85
2021/10/01 06:24:30;;;;;;;2.90;2.80;;;14.60;63.40;;;;;;5061018;28;20029;-87
2021/10/01 06:26:56;;;;;;;2.80;2.70;;;14.60;63.40;;;;;;5042803;28;20041;-87
2021/10/01 06:29:22;;;;;;;2.88;2.78;;;14.70;63.50;;;;;;5031729;28;20029;-87
2021/10/01 06:31:48;;;;;;;3.05;2.95;;;14.60;63.40;;;;;;5030263;28;20041;-87
2021/10/01 06:34:14;;;;;;;2.90;2.80;;;14.60;63.50;;;;;;5061100;28;20508;-82
2021/10/01 06:36:40;;;;;;;3.10;3.00;;;14.70;63.50;;;;;;5032537;28;20403;-83
2021/10/01 06:39:07;;;;;;;3.10;3.00;;;14.70;63.50;;;;;;5043191;28;20037;-81
2021/10/01 06:41:33;;;;;;;7.32;3.30;;;14.70;63.50;;;;;;5035206;28;20029;-85
2021/10/01 06:44:02;;;;;;;3.08;2.97;;;14.70;63.50;;;;;;5036264;28;20388;-83
2021/10/01 08:21:12;;;;;;;4.10;3.90;;;17.20;61.00;;;;;;5034098;28;20044;-83
2021/10/01 08:23:40;;;;;;;4.07;3.88;;;17.20;61.30;;;;;;5034631;28;20040;-88
2021/10/01 08:26:06;;;;;;;3.83;3.63;;;17.10;61.40;;;;;;5031634;28;20419;-83
2021/10/01 08:28:33;;;;;;;3.80;3.60;;;17.10;61.60;;;;;;5033816;28;20036;-83
2021/10/01 08:30:59;;;;;;;4.05;3.85;;;17.10;61.70;;;;;;5035742;28;20040;-82
2021/10/01 08:33:25;;;;;;;4.53;4.20;;;17.10;61.80;;;;;;5031714;28;20025;-82
2021/10/01 08:35:51;;;;;;;4.05;3.85;;;17.10;61.90;;;;;;5032651;28;20033;-82
2021/10/01 08:38:17;;;;;;;4.45;4.15;;;17.10;62.00;;;;;;5009694;28;20038;-82
2021/10/01 08:40:43;;;;;;;3.95;3.75;;;17.10;62.10;;;;;;5030011;28;20037;-83
2021/10/01 08:43:09;;;;;;;3.97;3.78;;;17.10;62.10;;;;;;5019971;28;20029;-80
2021/10/01 08:45:35;;;;;;;3.95;3.75;;;17.10;62.10;;;;;;5013793;28;20740;-81
2021/10/01 08:48:02;;;;;;;4.20;4.00;;;17.20;62.10;;;;;;5018069;28;20029;-81
2021/10/01 08:50:29;;;;;;;4.18;3.97;;;17.30;62.00;;;;;;5031273;28;20416;-83
2021/10/01 08:52:59;;;;;;;4.00;3.80;;;17.40;61.90;;;;;;5029915;28;20387;-82
2021/10/01 08:55:26;;;;;;;4.40;4.20;;;17.60;61.80;;;;;;5033108;28;20587;-83
2021/10/01 08:57:52;;;;;;;4.47;4.28;;;17.70;61.80;;;;;;5013526;28;20037;-83
2021/10/01 09:00:19;;;;;;;4.10;3.90;;;17.90;61.70;;;;;;5030449;28;20072;-82
2021/10/01 09:02:45;;;;;;;4.40;4.20;;;18.10;61.60;;;;;;5034824;28;20488;-82
2021/10/01 09:05:12;;;;;;;4.70;4.50;;;18.20;61.40;;;;;;5031335;28;20037;-82
2021/10/01 09:07:38;;;;;;;4.82;4.63;;;18.30;61.40;;;;;;5031571;28;20033;-82
2021/10/01 09:10:12;;;;;;;4.68;4.47;;;18.30;61.50;;;;;;5031291;28;20033;-82
2021/10/01 09:12:39;;;;;;;11.75;4.82;;;18.30;61.70;;;;;;5014108;28;20392;-81
2021/10/01 09:15:08;;;;;;;4.97;4.78;;;18.20;61.70;;;;;;5031287;28;20054;-82
2021/10/01 09:17:34;;;;;;;5.20;4.95;;;18.30;61.90;;;;;;5030847;28;20029;-83
2021/10/01 09:20:01;;;;;;;4.50;4.30;;;18.30;61.90;;;;;;5062937;28;20068;-82
2021/10/01 09:22:35;;;;;;;4.93;4.53;;;18.30;62.10;;;;;;5063971;28;20025;-82
2021/10/01 09:25:21;;;;;;;4.53;4.32;;;18.30;62.20;;;;;;5031554;28;20048;-81
2021/10/01 09:27:49;;;;;;;4.55;4.35;;;18.30;62.30;;;;;;5016718;28;20093;-82
2021/10/01 09:30:17;;;;;;;3.92;3.72;;;18.30;62.40;;;;;;5064131;28;20503;-80
2021/10/01 09:33:13;;;;;;;4.18;3.97;;;18.20;62.50;;;;;;5031554;28;20042;-81
2021/10/01 09:35:41;;;;;;;4.93;4.63;;;18.20;62.70;;;;;;5030560;28;20028;-86
2021/10/01 09:38:18;;;;;;;4.10;3.90;;;18.20;62.70;;;;;;5031544;28;20041;-88
2021/10/01 09:40:45;;;;;;;5.13;4.82;;;18.30;62.70;;;;;;5031569;28;20435;-85
2021/10/01 09:43:28;;;;;;;4.63;4.43;;;18.40;62.50;;;;;;5031415;28;20040;-88
2021/10/01 09:46:13;;;;;;;5.50;5.20;;;18.60;62.40;;;;;;5031901;28;20033;-85
2021/10/01 09:48:40;;;;;;;4.60;4.40;;;18.60;62.40;;;;;;5064204;28;20488;-90
2021/10/01 09:51:11;;;;;;;5.10;4.90;;;18.60;62.30;;;;;;5015250;28;20048;-84
2021/10/01 09:53:46;;;;;;;4.40;4.20;;;18.60;62.40;;;;;;5039325;28;20032;-88
2021/10/01 09:56:32;;;;;;;4.72;4.43;;;18.40;62.50;;;;;;5040111;28;20025;-88
2021/10/01 09:59:21;;;;;;;4.25;4.05;;;18.40;62.80;;;;;;5034270;28;20029;-88
2021/10/01 10:01:59;;;;;;;4.53;4.32;;;18.30;62.90;;;;;;5030368;28;20296;-83
2021/10/01 10:04:26;;;;;;;4.15;3.95;;;18.30;63.00;;;;;;5021312;28;20032;-85
2021/10/01 10:06:52;;;;;;;4.07;3.88;;;18.20;63.10;;;;;;5053356;28;20037;-87
2021/10/01 10:09:46;;;;;;;4.40;4.10;;;18.10;63.20;;;;;;5062598;28;20033;-86
2021/10/01 10:12:15;;;;;;;3.80;3.60;;;18.00;63.50;;;;;;5040176;28;20037;-87
2021/10/01 10:14:46;;;;;;;4.13;3.92;;;18.00;63.70;;;;;;5045662;28;20037;-86
2021/10/01 10:17:17;;;;;;;3.97;3.78;;;17.90;63.80;;;;;;5029237;28;20030;-85
2021/10/01 10:19:43;;;;;;;4.60;4.40;;;17.80;64.10;;;;;;5030287;28;20036;-86
2021/10/01 10:22:09;;;;;;;4.20;4.00;;;17.70;64.30;;;;;;5044415;28;20056;-88
2021/10/01 10:24:35;;;;;;;3.70;3.50;;;17.60;64.40;;;;;;5030430;28;20022;-85
2021/10/01 10:27:01;;;;;;;3.60;3.42;;;17.60;64.50;;;;;;5031059;28;20037;-87
2021/10/01 10:29:28;;;;;;;3.67;3.47;;;17.50;64.60;;;;;;5045560;28;20040;-87
2021/10/01 10:31:54;;;;;;;3.88;3.67;;;17.50;64.70;;;;;;5027209;28;20045;-88
2021/10/01 10:34:28;;;;;;;3.72;3.53;;;17.50;64.80;;;;;;5032919;28;20490;-86
2021/10/01 10:37:15;;;;;;;3.42;3.22;;;17.40;64.90;;;;;;5034563;28;20028;-88
2021/10/01 10:39:43;;;;;;;3.15;3.05;;;17.40;65.10;;;;;;5033093;28;20415;-89
2021/10/01 10:42:14;;;;;;;3.08;2.97;;;17.40;65.10;;;;;;5020438;28;20033;-87
2021/10/01 10:44:53;;;;;;;3.35;3.25;;;17.40;65.10;;;;;;5034429;28;20409;-87
2021/10/01 10:47:46;;;;;;;3.00;2.90;;;17.40;65.20;;;;;;5033252;28;20052;-88
2021/10/01 10:50:21;;;;;;;3.90;3.70;;;17.40;65.30;;;;;;5033823;28;20033;-88
2021/10/01 10:53:12;;;;;;;3.15;3.05;;;17.40;65.30;;;;;;5034444;28;20025;-87
2021/10/01 10:56:02;;;;;;;3.55;3.35;;;17.40;65.30;;;;;;5032603;28;20052;-87
2021/10/01 10:58:28;;;;;;;2.92;2.83;;;17.50;65.30;;;;;;5063427;28;20029;-89
2021/10/01 11:01:01;;;;;;;2.85;2.75;;;17.50;65.20;;;;;;5045523;28;20048;-89
2021/10/01 11:03:28;;;;;;;3.03;2.92;;;17.50;65.20;;;;;;5066151;28;20377;-89
2021/10/01 11:06:17;;;;;;;3.03;2.92;;;17.60;65.40;;;;;;5034506;28;20040;-87
2021/10/01 11:08:50;;;;;;;3.20;3.10;;;17.50;65.50;;;;;;5039973;28;20030;-88
2021/10/01 11:11:35;;;;;;;3.00;2.90;;;17.50;65.50;;;;;;5032382;28;20403;-87
2021/10/01 11:14:13;;;;;;;3.25;3.15;;;17.50;65.70;;;;;;5033033;28;20033;-86
2021/10/01 11:16:39;;;;;;;3.15;3.05;;;17.40;65.80;;;;;;5033037;28;20033;-86
2021/10/01 11:19:05;;;;;;;3.47;3.28;;;17.40;65.90;;;;;;5028649;28;20435;-86
2021/10/01 11:21:33;;;;;;;3.10;3.00;;;17.40;66.00;;;;;;5064044;28;20042;-88
2021/10/01 11:24:05;;;;;;;3.00;2.90;;;17.30;66.10;;;;;;5032734;28;20034;-87
2021/10/01 11:26:42;;;;;;;3.28;3.17;;;17.30;66.30;;;;;;5033966;28;20032;-87
2021/10/01 11:29:33;;;;;;;3.00;2.90;;;17.20;66.30;;;;;;5065192;28;20053;-86
2021/10/01 11:32:18;;;;;;;3.20;3.10;;;17.30;66.50;;;;;;5032787;28;20515;-88
2021/10/01 11:34:46;;;;;;;3.03;2.92;;;17.30;66.50;;;;;;5025626;28;20048;-87
2021/10/01 11:37:31;;;;;;;3.58;3.38;;;17.30;66.40;;;;;;5031876;28;20462;-86
2021/10/01 11:40:09;;;;;;;3.35;3.25;;;17.30;66.50;;;;;;5018661;28;20038;-86
2021/10/01 11:42:40;;;;;;;3.30;3.20;;;17.30;66.50;;;;;;5030506;28;20030;-85
2021/10/01 11:45:08;;;;;;;;;;;17.30;66.60;;;;;;5028770;28;20029;-85
2021/10/01 11:47:34;;;;;;;3.28;3.17;;;17.30;66.60;;;;;;5054322;28;19905;-84
2021/10/01 11:50:00;;;;;;;3.17;3.08;;;17.30;66.60;;;;;;5058953;28;20036;-85
2021/10/01 11:52:27;;;;;;;3.15;3.05;;;17.30;66.60;;;;;;5048238;28;20041;-84
2021/10/01 11:54:56;;;;;;;3.60;3.40;;;17.30;66.60;;;;;;5032420;28;20029;-86
2021/10/01 11:57:22;;;;;;;3.33;3.22;;;17.30;66.70;;;;;;5032310;28;20041;-86
2021/10/01 11:59:50;;;;;;;3.30;3.17;;;17.30;66.80;;;;;;5032358;28;20072;-87
2021/10/01 12:02:35;;;;;;;3.22;3.13;;;17.20;66.90;;;;;;5014889;28;20193;-88
2021/10/01 12:05:20;;;;;;;3.70;3.50;;;17.20;67.10;;;;;;5033037;28;20033;-88
2021/10/01 12:07:50;;;;;;;3.38;3.25;;;17.20;67.10;;;;;;5032785;28;20029;-87
2021/10/01 12:10:16;;;;;;;3.42;3.22;;;17.10;67.10;;;;;;5032867;28;20033;-88
2021/10/01 12:13:02;;;;;;;3.53;3.15;;;17.20;67.30;;;;;;5032545;28;20385;-87
2021/10/01 12:15:54;;;;;;;3.97;3.50;;;17.20;67.50;;;;;;5029545;28;20400;-87
2021/10/01 12:18:35;;;;;;;;;;;17.10;67.50;;;;;;5029300;28;20048;-86
2021/10/01 12:21:22;;;;;;;3.53;3.38;;;17.10;67.50;;;;;;5031799;28;20565;-84
2021/10/01 12:24:01;;;;;;;3.42;3.22;;;17.10;67.50;;;;;;5031104;28;20364;-84
2021/10/01 12:26:33;;;;;;;3.42;3.30;;;17.10;67.40;;;;;;5032258;28;20476;-85
2021/10/01 12:29:13;;;;;;;3.17;3.08;;;17.10;67.50;;;;;;5031885;28;20029;-85
2021/10/01 12:31:54;;;;;;;3.58;3.42;;;17.10;67.50;;;;;;5026413;28;20033;-87
2021/10/01 12:34:25;;;;;;;3.15;3.05;;;17.10;67.60;;;;;;5020824;28;20037;-86
2021/10/01 12:36:56;;;;;;;;;;;17.20;67.70;;;;;;5014870;28;20388;-87
2021/10/01 12:39:23;;;;;;;3.28;3.17;;;17.20;67.70;;;;;;5031486;28;19909;-86
2021/10/01 12:42:00;;;;;;;3.03;2.92;;;17.20;67.70;;;;;;5026845;28;20507;-87
2021/10/01 12:44:27;;;;;;;3.35;3.25;;;17.20;67.60;;;;;;5029285;28;20096;-85
2021/10/01 12:46:54;;;;;;;3.50;3.30;;;17.20;67.60;;;;;;5030617;28;20044;-85
2021/10/01 12:49:24;;;;;;;3.50;3.30;;;17.20;67.60;;;;;;5031971;28;20037;-85
2021/10/01 12:52:02;;;;;;;4.00;3.80;;;17.30;67.60;;;;;;5030869;28;20512;-85
2021/10/01 12:54:35;;;;;;;3.80;3.60;;;17.40;67.60;;;;;;5021854;28;20036;-84
2021/10/01 12:57:13;;;;;;;4.03;3.83;;;17.40;67.50;;;;;;5030518;28;20431;-85
2021/10/01 12:59:40;;;;;;;3.85;3.65;;;17.50;67.60;;;;;;5046132;28;20064;-84
2021/10/01 13:02:07;;;;;;;3.42;3.22;;;17.40;67.50;;;;;;5030141;28;20045;-84
2021/10/01 13:04:45;;;;;;;3.47;3.35;;;17.40;67.60;;;;;;5032464;28;20479;-84
2021/10/01 13:07:21;;;;;;;3.90;3.70;;;17.50;67.70;;;;;;5032010;28;20388;-85
2021/10/01 13:09:47;;;;;;;3.78;3.58;;;17.50;67.80;;;;;;5016741;28;20017;-85
2021/10/01 13:13:08;;;;;;;3.50;3.35;;;17.50;67.80;;;;;;5029827;28;20032;-85
2021/10/01 13:15:36;;;;;;;3.78;3.58;;;17.50;67.90;;;;;;4949824;28;20082;-85
2021/10/01 13:18:07;;;;;;;3.83;3.63;;;17.50;67.80;;;;;;4952225;29;20038;-83
2021/10/01 13:20:35;;;;;;;3.90;3.70;;;17.50;67.80;;;;;;4950193;29;20038;-84
2021/10/01 13:23:06;;;;;;;3.75;3.55;;;17.60;67.90;;;;;;4950785;29;20047;-84
2021/10/01 13:25:37;;;;;;;4.40;4.20;;;17.60;67.90;;;;;;4950341;29;20039;-83
2021/10/01 13:28:03;;;;;;;;;;;17.60;67.90;;;;;;4951417;29;20039;-83
2021/10/01 13:30:29;;;;;;;3.47;3.35;;;17.60;67.90;;;;;;4939213;28;19914;-84
2021/10/01 13:32:55;;;;;;;3.75;3.55;;;17.70;67.70;;;;;;4951422;29;20031;-84
2021/10/01 13:35:21;;;;;;;3.72;3.53;;;17.70;67.70;;;;;;4950819;29;20035;-84
2021/10/01 13:37:48;;;;;;;3.85;3.65;;;17.80;67.70;;;;;;4948165;29;20047;-84
2021/10/01 13:40:14;;;;;;;6.13;3.90;;;17.90;67.80;;;;;;4939242;29;20402;-84
2021/10/01 13:42:40;;;;;;;4.45;4.25;;;17.90;67.70;;;;;;4950045;29;20058;-85
2021/10/01 13:45:07;;;;;;;3.83;3.63;;;17.90;67.70;;;;;;4967054;28;20043;-85
2021/10/01 13:47:33;;;;;;;3.78;3.60;;;17.90;67.70;;;;;;4950221;29;20035;-86
2021/10/01 13:50:00;;;;;;;3.88;3.67;;;18.00;67.70;;;;;;4959298;28;20413;-84
2021/10/01 13:52:26;;;;;;;4.15;3.95;;;18.00;67.70;;;;;;5019756;28;20044;-85
2021/10/01 13:54:53;;;;;;;4.10;3.90;;;18.10;67.70;;;;;;5028665;28;20037;-85
2021/10/01 13:57:19;;;;;;;4.03;3.83;;;18.10;67.80;;;;;;5030163;28;20025;-81
2021/10/01 13:59:45;;;;;;;4.20;4.00;;;18.10;67.70;;;;;;5029506;28;20049;-83
2021/10/01 14:02:11;;;;;;;4.25;4.05;;;18.10;67.80;;;;;;5030075;28;20044;-82
2021/10/01 14:04:37;;;;;;;4.03;3.83;;;18.10;67.90;;;;;;5010402;28;20388;-84
2021/10/01 14:07:04;;;;;;;5.30;4.20;;;18.20;67.90;;;;;;5030839;28;21505;-86
2021/10/01 14:09:30;;;;;;;4.20;4.00;;;18.20;68.00;;;;;;5029049;28;20025;-85
2021/10/01 14:11:56;;;;;;;4.05;3.85;;;18.10;67.90;;;;;;5030622;28;20053;-85
2021/10/01 14:14:22;;;;;;;4.22;4.03;;;18.20;68.00;;;;;;5030466;28;20036;-85
2021/10/01 14:16:48;;;;;;;4.07;3.88;;;18.20;68.10;;;;;;5030284;28;20404;-84
2021/10/01 14:19:14;;;;;;;3.92;3.72;;;18.20;68.20;;;;;;5029103;28;20042;-85
2021/10/01 14:21:40;;;;;;;4.03;3.83;;;18.20;68.20;;;;;;5029705;28;20061;-88
2021/10/01 14:24:06;;;;;;;4.38;4.18;;;18.20;68.20;;;;;;5030833;28;20037;-89
2021/10/01 14:26:33;;;;;;;14.35;4.32;;;18.10;68.20;;;;;;5029375;28;20041;-87
2021/10/01 14:28:59;;;;;;;4.30;4.10;;;18.10;68.30;;;;;;5029673;28;20037;-88
2021/10/01 14:31:25;;;;;;;3.97;3.78;;;18.10;68.30;;;;;;5026725;28;20029;-88
2021/10/01 14:33:51;;;;;;;4.15;3.95;;;18.10;68.50;;;;;;5030558;28;20041;-88
2021/10/01 14:36:17;;;;;;;4.28;4.07;;;18.10;68.50;;;;;;5030122;28;20041;-88
2021/10/01 14:38:43;;;;;;;4.15;3.95;;;18.10;68.60;;;;;;5029556;28;20038;-89
2021/10/01 14:41:09;;;;;;;4.03;3.83;;;18.10;68.60;;;;;;5029007;28;20053;-88